sensor_id;sensor_type;location;lat;lon;timestamp;P1;durP1;ratioP1;P2;durP2;ratioP2
78856;SDS011;68207;50.078;19.936;2023-04-08T00:02:25;45.80;;;28.50;;
78856;SDS011;68207;50.078;19.936;2023-04-08T00:04:51;45.30;;;27.80;;
78856;SDS011;68207;50.078;19.936;2023-04-08T00:07:16;46.00;;;29.10;;
78856;SDS011;68207;50.078;19.936;2023-04-08T00:09:41;38.20;;;24.50;;
78856;SDS011;68207;50.078;19.936;2023-04-08T00:12:10;46.60;;;29.30;;
78856;SDS011;68207;50.078;19.936;2023-04-08T00:14:35;47.20;;;28.50;;
78856;SDS011;68207;50.078;19.936;2023-04-08T00:17:02;44.20;;;27.00;;
78856;SDS011;68207;50.078;19.936;2023-04-08T00:19:31;44.50;;;27.50;;
78856;SDS011;68207;50.078;19.936;2023-04-08T00:21:57;43.30;;;27.00;;
78856;SDS011;68207;50.078;19.936;2023-04-08T00:24:23;41.20;;;26.90;;
78856;SDS011;68207;50.078;19.936;2023-04-08T00:26:49;40.50;;;25.90;;
78856;SDS011;68207;50.078;19.936;2023-04-08T00:29:15;36.80;;;23.90;;
78856;SDS011;68207;50.078;19.936;2023-04-08T00:31:40;45.50;;;28.10;;
78856;SDS011;68207;50.078;19.936;2023-04-08T00:34:06;41.90;;;25.80;;
78856;SDS011;68207;50.078;19.936;2023-04-08T00:36:31;40.90;;;25.70;;
78856;SDS011;68207;50.078;19.936;2023-04-08T00:39:04;41.10;;;25.30;;
78856;SDS011;68207;50.078;19.936;2023-04-08T00:41:32;38.80;;;24.10;;
78856;SDS011;68207;50.078;19.936;2023-04-08T00:43:58;41.00;;;25.00;;
78856;SDS011;68207;50.078;19.936;2023-04-08T00:46:23;37.00;;;25.10;;
78856;SDS011;68207;50.078;19.936;2023-04-08T00:48:51;37.90;;;24.20;;
78856;SDS011;68207;50.078;19.936;2023-04-08T00:51:19;40.80;;;24.70;;
78856;SDS011;68207;50.078;19.936;2023-04-08T00:53:45;37.80;;;24.40;;
78856;SDS011;68207;50.078;19.936;2023-04-08T00:56:10;36.60;;;23.50;;
78856;SDS011;68207;50.078;19.936;2023-04-08T00:58:38;42.00;;;25.20;;
78856;SDS011;68207;50.078;19.936;2023-04-08T01:01:06;34.20;;;22.50;;
78856;SDS011;68207;50.078;19.936;2023-04-08T01:03:45;33.80;;;22.10;;
78856;SDS011;68207;50.078;19.936;2023-04-08T01:07:33;37.90;;;23.20;;
78856;SDS011;68207;50.078;19.936;2023-04-08T01:09:38;39.60;;;24.60;;
78856;SDS011;68207;50.078;19.936;2023-04-08T01:12:16;36.60;;;23.00;;
78856;SDS011;68207;50.078;19.936;2023-04-08T01:14:44;45.90;;;26.20;;
78856;SDS011;68207;50.078;19.936;2023-04-08T01:17:34;41.80;;;25.40;;
78856;SDS011;68207;50.078;19.936;2023-04-08T01:20:06;42.70;;;25.90;;
78856;SDS011;68207;50.078;19.936;2023-04-08T01:25:15;46.80;;;27.30;;
78856;SDS011;68207;50.078;19.936;2023-04-08T01:27:43;49.30;;;27.30;;
78856;SDS011;68207;50.078;19.936;2023-04-08T01:30:16;45.30;;;27.40;;
78856;SDS011;68207;50.078;19.936;2023-04-08T01:32:46;45.20;;;26.40;;
78856;SDS011;68207;50.078;19.936;2023-04-08T01:35:14;40.80;;;24.20;;
78856;SDS011;68207;50.078;19.936;2023-04-08T01:37:40;42.40;;;23.80;;
78856;SDS011;68207;50.078;19.936;2023-04-08T01:40:07;47.30;;;25.40;;
78856;SDS011;68207;50.078;19.936;2023-04-08T01:42:35;49.40;;;28.60;;
78856;SDS011;68207;50.078;19.936;2023-04-08T01:45:01;48.00;;;25.70;;
78856;SDS011;68207;50.078;19.936;2023-04-08T01:49:54;46.10;;;25.00;;
78856;SDS011;68207;50.078;19.936;2023-04-08T01:52:42;43.10;;;25.70;;
78856;SDS011;68207;50.078;19.936;2023-04-08T01:55:09;36.60;;;22.30;;
78856;SDS011;68207;50.078;19.936;2023-04-08T01:57:37;48.20;;;26.80;;
78856;SDS011;68207;50.078;19.936;2023-04-08T02:00:25;43.10;;;26.00;;
78856;SDS011;68207;50.078;19.936;2023-04-08T02:02:56;48.50;;;27.70;;
78856;SDS011;68207;50.078;19.936;2023-04-08T02:05:25;47.70;;;26.20;;
78856;SDS011;68207;50.078;19.936;2023-04-08T02:08:13;38.70;;;22.00;;
78856;SDS011;68207;50.078;19.936;2023-04-08T02:10:39;44.70;;;25.30;;
78856;SDS011;68207;50.078;19.936;2023-04-08T02:13:19;47.30;;;27.40;;
78856;SDS011;68207;50.078;19.936;2023-04-08T02:15:47;55.90;;;29.30;;
78856;SDS011;68207;50.078;19.936;2023-04-08T02:20:51;51.00;;;27.90;;
78856;SDS011;68207;50.078;19.936;2023-04-08T02:23:23;47.90;;;26.10;;
78856;SDS011;68207;50.078;19.936;2023-04-08T02:25:55;48.00;;;25.70;;
78856;SDS011;68207;50.078;19.936;2023-04-08T02:31:12;47.40;;;26.50;;
78856;SDS011;68207;50.078;19.936;2023-04-08T02:33:44;47.70;;;26.60;;
78856;SDS011;68207;50.078;19.936;2023-04-08T02:36:12;47.40;;;25.80;;
78856;SDS011;68207;50.078;19.936;2023-04-08T02:38:39;45.80;;;25.70;;
78856;SDS011;68207;50.078;19.936;2023-04-08T02:41:14;43.80;;;26.10;;
78856;SDS011;68207;50.078;19.936;2023-04-08T02:43:40;45.30;;;25.00;;
78856;SDS011;68207;50.078;19.936;2023-04-08T02:46:11;52.20;;;29.00;;
78856;SDS011;68207;50.078;19.936;2023-04-08T02:48:37;51.30;;;28.40;;
78856;SDS011;68207;50.078;19.936;2023-04-08T02:51:11;48.00;;;28.40;;
78856;SDS011;68207;50.078;19.936;2023-04-08T02:53:40;54.10;;;28.30;;
78856;SDS011;68207;50.078;19.936;2023-04-08T02:56:05;49.00;;;27.70;;
78856;SDS011;68207;50.078;19.936;2023-04-08T02:58:36;47.40;;;27.40;;
78856;SDS011;68207;50.078;19.936;2023-04-08T03:01:02;41.50;;;24.00;;
78856;SDS011;68207;50.078;19.936;2023-04-08T03:03:28;49.00;;;26.40;;
78856;SDS011;68207;50.078;19.936;2023-04-08T03:05:55;43.20;;;24.50;;
78856;SDS011;68207;50.078;19.936;2023-04-08T03:08:21;42.80;;;24.70;;
78856;SDS011;68207;50.078;19.936;2023-04-08T03:10:47;44.60;;;24.30;;
78856;SDS011;68207;50.078;19.936;2023-04-08T03:13:13;36.90;;;20.50;;
78856;SDS011;68207;50.078;19.936;2023-04-08T03:15:39;29.10;;;18.20;;
78856;SDS011;68207;50.078;19.936;2023-04-08T03:18:08;41.60;;;22.40;;
78856;SDS011;68207;50.078;19.936;2023-04-08T03:20:33;44.10;;;23.70;;
78856;SDS011;68207;50.078;19.936;2023-04-08T03:22:58;39.60;;;22.10;;
78856;SDS011;68207;50.078;19.936;2023-04-08T03:25:24;38.30;;;20.70;;
78856;SDS011;68207;50.078;19.936;2023-04-08T03:27:50;36.10;;;20.00;;
78856;SDS011;68207;50.078;19.936;2023-04-08T03:30:15;36.10;;;20.40;;
78856;SDS011;68207;50.078;19.936;2023-04-08T03:32:41;29.00;;;15.60;;
78856;SDS011;68207;50.078;19.936;2023-04-08T03:35:06;25.10;;;15.80;;
78856;SDS011;68207;50.078;19.936;2023-04-08T03:37:32;39.00;;;20.30;;
78856;SDS011;68207;50.078;19.936;2023-04-08T03:39:58;41.10;;;21.60;;
78856;SDS011;68207;50.078;19.936;2023-04-08T03:42:23;34.20;;;19.70;;
78856;SDS011;68207;50.078;19.936;2023-04-08T03:44:51;37.30;;;21.50;;
78856;SDS011;68207;50.078;19.936;2023-04-08T03:47:17;34.70;;;18.30;;
78856;SDS011;68207;50.078;19.936;2023-04-08T03:49:42;29.60;;;17.70;;
78856;SDS011;68207;50.078;19.936;2023-04-08T03:52:07;37.20;;;20.60;;
78856;SDS011;68207;50.078;19.936;2023-04-08T03:54:33;46.10;;;23.90;;
78856;SDS011;68207;50.078;19.936;2023-04-08T03:56:58;42.70;;;23.00;;
78856;SDS011;68207;50.078;19.936;2023-04-08T03:59:23;36.70;;;20.80;;
78856;SDS011;68207;50.078;19.936;2023-04-08T04:01:49;35.60;;;20.80;;
78856;SDS011;68207;50.078;19.936;2023-04-08T04:04:16;39.10;;;21.00;;
78856;SDS011;68207;50.078;19.936;2023-04-08T04:06:41;34.60;;;20.10;;
78856;SDS011;68207;50.078;19.936;2023-04-08T04:09:07;39.00;;;20.80;;
78856;SDS011;68207;50.078;19.936;2023-04-08T04:11:35;45.20;;;23.50;;
78856;SDS011;68207;50.078;19.936;2023-04-08T04:14:01;39.70;;;21.70;;
78856;SDS011;68207;50.078;19.936;2023-04-08T04:16:27;37.20;;;20.70;;
78856;SDS011;68207;50.078;19.936;2023-04-08T04:18:52;41.30;;;22.10;;
78856;SDS011;68207;50.078;19.936;2023-04-08T04:21:18;34.90;;;20.90;;
78856;SDS011;68207;50.078;19.936;2023-04-08T04:23:43;35.40;;;19.40;;
78856;SDS011;68207;50.078;19.936;2023-04-08T04:26:09;34.30;;;20.30;;
78856;SDS011;68207;50.078;19.936;2023-04-08T04:28:35;37.70;;;22.10;;
78856;SDS011;68207;50.078;19.936;2023-04-08T04:31:00;35.40;;;20.30;;
78856;SDS011;68207;50.078;19.936;2023-04-08T04:33:26;33.60;;;20.10;;
78856;SDS011;68207;50.078;19.936;2023-04-08T04:35:51;31.40;;;19.00;;
78856;SDS011;68207;50.078;19.936;2023-04-08T04:38:17;31.40;;;18.40;;
78856;SDS011;68207;50.078;19.936;2023-04-08T04:40:42;30.90;;;17.80;;
78856;SDS011;68207;50.078;19.936;2023-04-08T04:43:08;26.40;;;15.90;;
78856;SDS011;68207;50.078;19.936;2023-04-08T04:45:33;27.30;;;15.90;;
78856;SDS011;68207;50.078;19.936;2023-04-08T04:47:59;35.40;;;19.30;;
78856;SDS011;68207;50.078;19.936;2023-04-08T04:50:27;27.50;;;15.60;;
78856;SDS011;68207;50.078;19.936;2023-04-08T04:52:53;26.80;;;16.80;;
78856;SDS011;68207;50.078;19.936;2023-04-08T04:55:19;25.70;;;15.40;;
78856;SDS011;68207;50.078;19.936;2023-04-08T04:57:46;27.20;;;15.80;;
78856;SDS011;68207;50.078;19.936;2023-04-08T05:00:12;24.50;;;14.90;;
78856;SDS011;68207;50.078;19.936;2023-04-08T05:02:37;27.40;;;17.20;;
78856;SDS011;68207;50.078;19.936;2023-04-08T05:05:03;29.60;;;16.70;;
78856;SDS011;68207;50.078;19.936;2023-04-08T05:07:28;23.40;;;15.40;;
78856;SDS011;68207;50.078;19.936;2023-04-08T05:09:54;24.80;;;14.70;;
78856;SDS011;68207;50.078;19.936;2023-04-08T05:12:19;23.20;;;15.00;;
78856;SDS011;68207;50.078;19.936;2023-04-08T05:14:45;23.90;;;14.60;;
78856;SDS011;68207;50.078;19.936;2023-04-08T05:19:56;14.90;;;10.30;;
78856;SDS011;68207;50.078;19.936;2023-04-08T05:22:21;21.30;;;13.20;;
78856;SDS011;68207;50.078;19.936;2023-04-08T05:24:47;24.50;;;15.90;;
78856;SDS011;68207;50.078;19.936;2023-04-08T05:27:12;24.00;;;14.70;;
78856;SDS011;68207;50.078;19.936;2023-04-08T05:29:40;22.10;;;14.20;;
78856;SDS011;68207;50.078;19.936;2023-04-08T05:34:51;24.00;;;15.30;;
78856;SDS011;68207;50.078;19.936;2023-04-08T05:37:26;24.50;;;15.10;;
78856;SDS011;68207;50.078;19.936;2023-04-08T05:39:52;21.00;;;14.50;;
78856;SDS011;68207;50.078;19.936;2023-04-08T05:42:17;23.50;;;16.10;;
78856;SDS011;68207;50.078;19.936;2023-04-08T05:44:43;25.10;;;15.40;;
78856;SDS011;68207;50.078;19.936;2023-04-08T05:47:08;24.50;;;15.80;;
78856;SDS011;68207;50.078;19.936;2023-04-08T05:49:34;20.10;;;13.60;;
78856;SDS011;68207;50.078;19.936;2023-04-08T05:51:59;23.00;;;15.20;;
78856;SDS011;68207;50.078;19.936;2023-04-08T05:54:31;22.00;;;14.50;;
78856;SDS011;68207;50.078;19.936;2023-04-08T05:56:56;26.30;;;15.50;;
78856;SDS011;68207;50.078;19.936;2023-04-08T05:59:22;24.20;;;15.20;;
78856;SDS011;68207;50.078;19.936;2023-04-08T06:01:47;21.80;;;13.90;;
78856;SDS011;68207;50.078;19.936;2023-04-08T06:04:16;27.30;;;17.90;;
78856;SDS011;68207;50.078;19.936;2023-04-08T06:06:41;27.10;;;17.80;;
78856;SDS011;68207;50.078;19.936;2023-04-08T06:09:07;24.50;;;16.80;;
78856;SDS011;68207;50.078;19.936;2023-04-08T06:11:43;29.50;;;18.90;;
78856;SDS011;68207;50.078;19.936;2023-04-08T06:14:11;28.40;;;17.10;;
78856;SDS011;68207;50.078;19.936;2023-04-08T06:16:41;24.90;;;15.20;;
78856;SDS011;68207;50.078;19.936;2023-04-08T06:19:07;20.90;;;14.80;;
78856;SDS011;68207;50.078;19.936;2023-04-08T06:21:40;22.20;;;15.30;;
78856;SDS011;68207;50.078;19.936;2023-04-08T06:24:08;19.20;;;13.80;;
78856;SDS011;68207;50.078;19.936;2023-04-08T06:26:46;24.30;;;17.00;;
78856;SDS011;68207;50.078;19.936;2023-04-08T06:29:11;22.50;;;15.20;;
78856;SDS011;68207;50.078;19.936;2023-04-08T06:31:39;24.00;;;16.10;;
78856;SDS011;68207;50.078;19.936;2023-04-08T06:34:06;21.90;;;15.40;;
78856;SDS011;68207;50.078;19.936;2023-04-08T06:36:31;22.70;;;14.40;;
78856;SDS011;68207;50.078;19.936;2023-04-08T06:38:56;21.10;;;14.10;;
78856;SDS011;68207;50.078;19.936;2023-04-08T06:41:24;17.30;;;12.80;;
78856;SDS011;68207;50.078;19.936;2023-04-08T06:43:50;14.50;;;11.00;;
78856;SDS011;68207;50.078;19.936;2023-04-08T06:46:18;15.60;;;11.30;;
78856;SDS011;68207;50.078;19.936;2023-04-08T06:51:20;13.10;;;10.20;;
78856;SDS011;68207;50.078;19.936;2023-04-08T06:53:45;17.50;;;12.90;;
78856;SDS011;68207;50.078;19.936;2023-04-08T06:56:11;19.10;;;13.10;;
78856;SDS011;68207;50.078;19.936;2023-04-08T06:58:40;17.60;;;12.40;;
78856;SDS011;68207;50.078;19.936;2023-04-08T07:01:08;17.20;;;11.70;;
78856;SDS011;68207;50.078;19.936;2023-04-08T07:03:34;14.90;;;10.90;;
78856;SDS011;68207;50.078;19.936;2023-04-08T07:05:59;16.70;;;11.70;;
78856;SDS011;68207;50.078;19.936;2023-04-08T07:08:25;16.60;;;11.80;;
78856;SDS011;68207;50.078;19.936;2023-04-08T07:10:51;16.00;;;11.90;;
78856;SDS011;68207;50.078;19.936;2023-04-08T07:13:21;13.70;;;10.80;;
78856;SDS011;68207;50.078;19.936;2023-04-08T07:15:47;13.40;;;10.60;;
78856;SDS011;68207;50.078;19.936;2023-04-08T07:18:12;14.90;;;10.30;;
78856;SDS011;68207;50.078;19.936;2023-04-08T07:20:38;12.30;;;9.20;;
78856;SDS011;68207;50.078;19.936;2023-04-08T07:23:03;20.60;;;14.50;;
78856;SDS011;68207;50.078;19.936;2023-04-08T07:25:29;16.40;;;11.50;;
78856;SDS011;68207;50.078;19.936;2023-04-08T07:27:54;19.80;;;13.50;;
78856;SDS011;68207;50.078;19.936;2023-04-08T07:30:20;18.30;;;12.10;;
78856;SDS011;68207;50.078;19.936;2023-04-08T07:32:46;19.00;;;12.50;;
78856;SDS011;68207;50.078;19.936;2023-04-08T07:35:11;17.00;;;12.70;;
78856;SDS011;68207;50.078;19.936;2023-04-08T07:37:37;13.40;;;10.40;;
78856;SDS011;68207;50.078;19.936;2023-04-08T07:40:02;15.30;;;11.60;;
78856;SDS011;68207;50.078;19.936;2023-04-08T07:42:28;13.50;;;10.40;;
78856;SDS011;68207;50.078;19.936;2023-04-08T07:44:53;14.10;;;10.90;;
78856;SDS011;68207;50.078;19.936;2023-04-08T07:47:18;16.80;;;11.80;;
78856;SDS011;68207;50.078;19.936;2023-04-08T07:49:47;15.10;;;10.90;;
78856;SDS011;68207;50.078;19.936;2023-04-08T07:52:12;15.20;;;11.00;;
78856;SDS011;68207;50.078;19.936;2023-04-08T07:54:37;14.30;;;11.00;;
78856;SDS011;68207;50.078;19.936;2023-04-08T07:57:03;13.80;;;9.50;;
78856;SDS011;68207;50.078;19.936;2023-04-08T07:59:28;14.90;;;11.30;;
78856;SDS011;68207;50.078;19.936;2023-04-08T08:01:54;15.00;;;11.20;;
78856;SDS011;68207;50.078;19.936;2023-04-08T08:04:19;16.20;;;11.10;;
78856;SDS011;68207;50.078;19.936;2023-04-08T08:06:45;22.40;;;14.70;;
78856;SDS011;68207;50.078;19.936;2023-04-08T08:09:11;17.10;;;12.00;;
78856;SDS011;68207;50.078;19.936;2023-04-08T08:11:37;16.10;;;12.10;;
78856;SDS011;68207;50.078;19.936;2023-04-08T08:14:02;17.60;;;12.90;;
78856;SDS011;68207;50.078;19.936;2023-04-08T08:16:28;16.90;;;12.20;;
78856;SDS011;68207;50.078;19.936;2023-04-08T08:18:54;17.10;;;12.20;;
78856;SDS011;68207;50.078;19.936;2023-04-08T08:21:19;14.20;;;11.30;;
78856;SDS011;68207;50.078;19.936;2023-04-08T08:23:53;14.60;;;10.70;;
78856;SDS011;68207;50.078;19.936;2023-04-08T08:26:18;14.60;;;10.60;;
78856;SDS011;68207;50.078;19.936;2023-04-08T08:28:45;15.20;;;11.60;;
78856;SDS011;68207;50.078;19.936;2023-04-08T08:31:10;13.90;;;9.40;;
78856;SDS011;68207;50.078;19.936;2023-04-08T08:33:36;13.90;;;10.50;;
78856;SDS011;68207;50.078;19.936;2023-04-08T08:36:01;15.20;;;9.90;;
78856;SDS011;68207;50.078;19.936;2023-04-08T08:38:29;15.10;;;10.50;;
78856;SDS011;68207;50.078;19.936;2023-04-08T08:40:57;15.30;;;10.80;;
78856;SDS011;68207;50.078;19.936;2023-04-08T08:43:23;13.60;;;9.90;;
78856;SDS011;68207;50.078;19.936;2023-04-08T08:45:49;18.30;;;13.10;;
78856;SDS011;68207;50.078;19.936;2023-04-08T08:48:15;13.50;;;10.30;;
78856;SDS011;68207;50.078;19.936;2023-04-08T08:50:41;13.90;;;9.90;;
78856;SDS011;68207;50.078;19.936;2023-04-08T08:53:06;16.10;;;10.10;;
78856;SDS011;68207;50.078;19.936;2023-04-08T08:55:32;16.20;;;11.60;;
78856;SDS011;68207;50.078;19.936;2023-04-08T08:57:58;14.40;;;11.00;;
78856;SDS011;68207;50.078;19.936;2023-04-08T09:00:35;16.60;;;12.50;;
78856;SDS011;68207;50.078;19.936;2023-04-08T09:03:14;16.20;;;12.20;;
78856;SDS011;68207;50.078;19.936;2023-04-08T09:05:50;12.60;;;9.30;;
78856;SDS011;68207;50.078;19.936;2023-04-08T09:08:33;19.00;;;13.50;;
78856;SDS011;68207;50.078;19.936;2023-04-08T09:11:14;18.50;;;12.60;;
78856;SDS011;68207;50.078;19.936;2023-04-08T09:13:42;29.10;;;18.90;;
78856;SDS011;68207;50.078;19.936;2023-04-08T09:16:08;28.80;;;18.10;;
78856;SDS011;68207;50.078;19.936;2023-04-08T09:18:36;27.70;;;17.60;;
78856;SDS011;68207;50.078;19.936;2023-04-08T09:21:03;22.30;;;15.10;;
78856;SDS011;68207;50.078;19.936;2023-04-08T09:23:42;21.50;;;14.30;;
78856;SDS011;68207;50.078;19.936;2023-04-08T09:28:39;21.50;;;14.20;;
78856;SDS011;68207;50.078;19.936;2023-04-08T09:31:21;19.20;;;13.30;;
78856;SDS011;68207;50.078;19.936;2023-04-08T09:33:52;18.10;;;12.60;;
78856;SDS011;68207;50.078;19.936;2023-04-08T09:36:18;17.40;;;11.80;;
78856;SDS011;68207;50.078;19.936;2023-04-08T09:38:44;18.50;;;13.10;;
78856;SDS011;68207;50.078;19.936;2023-04-08T09:41:17;17.80;;;13.00;;
78856;SDS011;68207;50.078;19.936;2023-04-08T09:43:52;15.30;;;10.90;;
78856;SDS011;68207;50.078;19.936;2023-04-08T09:48:57;18.70;;;13.60;;
78856;SDS011;68207;50.078;19.936;2023-04-08T09:55:03;16.90;;;13.10;;
78856;SDS011;68207;50.078;19.936;2023-04-08T10:00:08;15.80;;;12.10;;
78856;SDS011;68207;50.078;19.936;2023-04-08T10:02:40;18.00;;;13.20;;
78856;SDS011;68207;50.078;19.936;2023-04-08T10:05:07;17.10;;;12.60;;
78856;SDS011;68207;50.078;19.936;2023-04-08T10:07:37;17.00;;;12.60;;
78856;SDS011;68207;50.078;19.936;2023-04-08T10:10:02;14.20;;;11.50;;
78856;SDS011;68207;50.078;19.936;2023-04-08T10:12:29;17.40;;;12.90;;
78856;SDS011;68207;50.078;19.936;2023-04-08T10:17:52;16.60;;;12.60;;
78856;SDS011;68207;50.078;19.936;2023-04-08T10:20:40;17.50;;;13.30;;
78856;SDS011;68207;50.078;19.936;2023-04-08T10:23:10;16.30;;;12.70;;
78856;SDS011;68207;50.078;19.936;2023-04-08T10:25:41;16.00;;;12.90;;
78856;SDS011;68207;50.078;19.936;2023-04-08T10:33:02;16.10;;;12.60;;
78856;SDS011;68207;50.078;19.936;2023-04-08T10:35:35;17.00;;;12.40;;
78856;SDS011;68207;50.078;19.936;2023-04-08T10:38:01;17.10;;;12.50;;
78856;SDS011;68207;50.078;19.936;2023-04-08T10:40:27;18.50;;;13.40;;
78856;SDS011;68207;50.078;19.936;2023-04-08T10:42:59;15.30;;;11.50;;
78856;SDS011;68207;50.078;19.936;2023-04-08T10:45:24;18.10;;;12.60;;
78856;SDS011;68207;50.078;19.936;2023-04-08T10:47:50;22.00;;;15.90;;
78856;SDS011;68207;50.078;19.936;2023-04-08T10:50:16;20.30;;;13.30;;
78856;SDS011;68207;50.078;19.936;2023-04-08T10:55:11;24.10;;;16.60;;
78856;SDS011;68207;50.078;19.936;2023-04-08T10:57:37;21.30;;;15.30;;
78856;SDS011;68207;50.078;19.936;2023-04-08T11:00:04;23.80;;;17.20;;
78856;SDS011;68207;50.078;19.936;2023-04-08T11:02:34;23.90;;;17.90;;
78856;SDS011;68207;50.078;19.936;2023-04-08T11:05:02;21.50;;;15.00;;
78856;SDS011;68207;50.078;19.936;2023-04-08T11:07:27;19.20;;;13.70;;
78856;SDS011;68207;50.078;19.936;2023-04-08T11:09:52;18.10;;;13.50;;
78856;SDS011;68207;50.078;19.936;2023-04-08T11:12:19;22.80;;;13.90;;
78856;SDS011;68207;50.078;19.936;2023-04-08T11:14:45;18.20;;;13.50;;
78856;SDS011;68207;50.078;19.936;2023-04-08T11:17:11;16.90;;;13.10;;
78856;SDS011;68207;50.078;19.936;2023-04-08T11:19:40;16.30;;;12.10;;
78856;SDS011;68207;50.078;19.936;2023-04-08T11:22:06;15.60;;;12.50;;
78856;SDS011;68207;50.078;19.936;2023-04-08T11:24:33;17.70;;;13.10;;
78856;SDS011;68207;50.078;19.936;2023-04-08T11:27:00;17.40;;;13.80;;
78856;SDS011;68207;50.078;19.936;2023-04-08T11:29:27;18.10;;;13.20;;
78856;SDS011;68207;50.078;19.936;2023-04-08T11:31:54;18.60;;;13.10;;
78856;SDS011;68207;50.078;19.936;2023-04-08T11:34:21;16.50;;;12.20;;
78856;SDS011;68207;50.078;19.936;2023-04-08T11:36:47;24.90;;;17.00;;
78856;SDS011;68207;50.078;19.936;2023-04-08T11:39:14;25.10;;;16.30;;
78856;SDS011;68207;50.078;19.936;2023-04-08T11:41:40;22.50;;;15.70;;
78856;SDS011;68207;50.078;19.936;2023-04-08T11:44:05;24.90;;;15.90;;
78856;SDS011;68207;50.078;19.936;2023-04-08T11:46:31;19.80;;;14.80;;
78856;SDS011;68207;50.078;19.936;2023-04-08T11:48:57;19.10;;;13.70;;
78856;SDS011;68207;50.078;19.936;2023-04-08T11:51:26;19.20;;;13.20;;
78856;SDS011;68207;50.078;19.936;2023-04-08T11:53:52;17.90;;;13.80;;
78856;SDS011;68207;50.078;19.936;2023-04-08T11:56:18;18.10;;;12.90;;
78856;SDS011;68207;50.078;19.936;2023-04-08T11:58:45;20.10;;;12.90;;
78856;SDS011;68207;50.078;19.936;2023-04-08T12:01:10;16.30;;;12.10;;
78856;SDS011;68207;50.078;19.936;2023-04-08T12:03:36;19.50;;;13.70;;
78856;SDS011;68207;50.078;19.936;2023-04-08T12:06:01;17.60;;;12.40;;
78856;SDS011;68207;50.078;19.936;2023-04-08T12:08:26;20.50;;;13.90;;
78856;SDS011;68207;50.078;19.936;2023-04-08T12:10:52;22.20;;;14.30;;
78856;SDS011;68207;50.078;19.936;2023-04-08T12:13:18;21.80;;;14.70;;
78856;SDS011;68207;50.078;19.936;2023-04-08T12:15:43;22.30;;;14.90;;
78856;SDS011;68207;50.078;19.936;2023-04-08T12:18:09;20.60;;;15.00;;
78856;SDS011;68207;50.078;19.936;2023-04-08T12:20:34;21.20;;;13.70;;
78856;SDS011;68207;50.078;19.936;2023-04-08T12:23:03;18.90;;;13.60;;
78856;SDS011;68207;50.078;19.936;2023-04-08T12:25:28;19.80;;;13.70;;
78856;SDS011;68207;50.078;19.936;2023-04-08T12:30:20;18.60;;;13.80;;
78856;SDS011;68207;50.078;19.936;2023-04-08T12:32:45;18.80;;;13.10;;
78856;SDS011;68207;50.078;19.936;2023-04-08T12:35:11;17.50;;;12.60;;
78856;SDS011;68207;50.078;19.936;2023-04-08T12:37:37;24.70;;;17.20;;
78856;SDS011;68207;50.078;19.936;2023-04-08T12:40:02;24.80;;;16.30;;
78856;SDS011;68207;50.078;19.936;2023-04-08T12:42:27;26.20;;;17.20;;
78856;SDS011;68207;50.078;19.936;2023-04-08T12:44:53;24.20;;;16.20;;
78856;SDS011;68207;50.078;19.936;2023-04-08T12:47:18;23.50;;;16.40;;
78856;SDS011;68207;50.078;19.936;2023-04-08T12:49:44;22.60;;;15.80;;
78856;SDS011;68207;50.078;19.936;2023-04-08T12:52:09;20.80;;;13.80;;
78856;SDS011;68207;50.078;19.936;2023-04-08T12:54:35;19.40;;;13.90;;
78856;SDS011;68207;50.078;19.936;2023-04-08T12:57:00;20.30;;;14.40;;
78856;SDS011;68207;50.078;19.936;2023-04-08T12:59:26;21.10;;;14.10;;
78856;SDS011;68207;50.078;19.936;2023-04-08T13:01:52;19.40;;;13.30;;
78856;SDS011;68207;50.078;19.936;2023-04-08T13:04:17;17.60;;;12.70;;
78856;SDS011;68207;50.078;19.936;2023-04-08T13:06:43;20.60;;;14.70;;
78856;SDS011;68207;50.078;19.936;2023-04-08T13:09:09;27.70;;;17.90;;
78856;SDS011;68207;50.078;19.936;2023-04-08T13:11:34;28.50;;;17.50;;
78856;SDS011;68207;50.078;19.936;2023-04-08T13:14:00;26.20;;;17.70;;
78856;SDS011;68207;50.078;19.936;2023-04-08T13:16:28;26.30;;;17.20;;
78856;SDS011;68207;50.078;19.936;2023-04-08T13:18:54;28.60;;;16.40;;
78856;SDS011;68207;50.078;19.936;2023-04-08T13:21:19;23.50;;;16.30;;
78856;SDS011;68207;50.078;19.936;2023-04-08T13:23:45;26.50;;;17.30;;
78856;SDS011;68207;50.078;19.936;2023-04-08T13:26:11;21.30;;;15.10;;
78856;SDS011;68207;50.078;19.936;2023-04-08T13:28:36;20.60;;;14.60;;
78856;SDS011;68207;50.078;19.936;2023-04-08T13:31:01;22.60;;;14.10;;
78856;SDS011;68207;50.078;19.936;2023-04-08T13:33:27;23.70;;;15.20;;
78856;SDS011;68207;50.078;19.936;2023-04-08T13:35:52;20.60;;;14.60;;
78856;SDS011;68207;50.078;19.936;2023-04-08T13:38:17;20.60;;;14.10;;
78856;SDS011;68207;50.078;19.936;2023-04-08T13:40:43;29.70;;;18.00;;
78856;SDS011;68207;50.078;19.936;2023-04-08T13:43:09;26.80;;;17.80;;
78856;SDS011;68207;50.078;19.936;2023-04-08T13:45:34;28.20;;;19.00;;
78856;SDS011;68207;50.078;19.936;2023-04-08T13:48:00;27.00;;;17.50;;
78856;SDS011;68207;50.078;19.936;2023-04-08T13:50:25;24.10;;;15.70;;
78856;SDS011;68207;50.078;19.936;2023-04-08T13:52:51;26.60;;;16.10;;
78856;SDS011;68207;50.078;19.936;2023-04-08T13:55:16;21.30;;;14.60;;
78856;SDS011;68207;50.078;19.936;2023-04-08T13:57:41;18.00;;;13.40;;
78856;SDS011;68207;50.078;19.936;2023-04-08T14:00:07;21.40;;;15.50;;
78856;SDS011;68207;50.078;19.936;2023-04-08T14:02:33;18.80;;;13.70;;
78856;SDS011;68207;50.078;19.936;2023-04-08T14:04:58;20.20;;;12.70;;
78856;SDS011;68207;50.078;19.936;2023-04-08T14:07:24;19.50;;;12.60;;
78856;SDS011;68207;50.078;19.936;2023-04-08T14:09:52;19.70;;;13.60;;
78856;SDS011;68207;50.078;19.936;2023-04-08T14:12:17;19.40;;;13.50;;
78856;SDS011;68207;50.078;19.936;2023-04-08T14:14:43;16.80;;;11.30;;
78856;SDS011;68207;50.078;19.936;2023-04-08T14:17:08;22.90;;;15.60;;
78856;SDS011;68207;50.078;19.936;2023-04-08T14:19:33;22.40;;;14.40;;
78856;SDS011;68207;50.078;19.936;2023-04-08T14:21:59;22.80;;;15.40;;
78856;SDS011;68207;50.078;19.936;2023-04-08T14:24:25;22.30;;;14.60;;
78856;SDS011;68207;50.078;19.936;2023-04-08T14:26:53;22.90;;;14.60;;
78856;SDS011;68207;50.078;19.936;2023-04-08T14:29:18;17.90;;;13.10;;
78856;SDS011;68207;50.078;19.936;2023-04-08T14:31:43;20.80;;;14.10;;
78856;SDS011;68207;50.078;19.936;2023-04-08T14:34:09;22.00;;;14.80;;
78856;SDS011;68207;50.078;19.936;2023-04-08T14:36:34;19.30;;;13.60;;
78856;SDS011;68207;50.078;19.936;2023-04-08T14:38:59;20.00;;;13.60;;
78856;SDS011;68207;50.078;19.936;2023-04-08T14:41:25;19.80;;;13.70;;
78856;SDS011;68207;50.078;19.936;2023-04-08T14:43:51;19.40;;;13.50;;
78856;SDS011;68207;50.078;19.936;2023-04-08T14:46:16;21.20;;;13.80;;
78856;SDS011;68207;50.078;19.936;2023-04-08T14:48:42;19.70;;;13.20;;
78856;SDS011;68207;50.078;19.936;2023-04-08T14:51:07;16.90;;;13.80;;
78856;SDS011;68207;50.078;19.936;2023-04-08T14:53:33;17.00;;;12.50;;